Cisco Butte, California Weather observations

Data are for observation ending at time listed.
 Day   Time    Ave.   Ave.  Ave.  Vector   Max.   Stn.    Total    Solar   Ave.   Snow 
  of    of     Air    Rel.  Wind   Wind    Wind   Baro.  Precip.   Rad.    Soil   Depth
Year   Day     Temp.  Hum.  Speed  Dir.    Gust   Pres.                    Temp.       
2014   (PST)    F      %     mph   deg.    mph     mb.     in.     W/m2     F      in. 
---------------------------------------------------------------------------------------  
 234    4:50   56.7    41    5.8   184     10.2   824.0    0.00       0    999.0  124.4
 234    5:00   56.6    42    5.4   222     13.8   824.0    0.00       0    999.0   14.6
 234    5:10   56.6    43    5.0   202     14.0   824.0    0.00       0    999.0   -0.2
 234    5:20   56.6    44    6.3   200     14.8   824.0    0.00       1    999.0   -0.0
 234    5:30   56.2    45    4.1   203     11.9   824.0    0.00       2    999.0   -0.2
 234    5:40   56.0    46    4.0   204     10.4   824.0    0.00       8    999.0   -0.1
 234    5:50   56.4    45    5.7   226     13.4   824.0    0.00      22    999.0   -0.3
 234    6:00   56.8    44    5.6   224     13.4   825.0    0.00      35    999.0   -0.3
 234    6:10   57.3    44    5.1   234     12.6   824.0    0.00      49    999.0   46.8
 234    6:20   57.6    44    5.1   209     20.6   824.0    0.00      66    999.0  107.1
 234    6:30   57.8    45    4.9   182     14.4   824.0    0.00      83    999.0  108.6
 234    6:40   58.0    43    5.4   184     14.2   824.0    0.00     103    999.0  154.5
 234    6:50   58.4    38    7.1   195     18.0   824.0    0.00     125    999.0  138.4
 234    7:00   58.7    36    7.1   192     17.0   824.0    0.00     147    999.0   -0.7
 234    7:10   58.9    36    6.6   188     17.2   824.0    0.00     171    999.0  108.9
 234    7:20   59.1    36    6.2   199     16.3   824.0    0.00     195    999.0  155.1
 234    7:30   59.7    35    6.6   194     20.1   824.0    0.00     219    999.0  155.1
 234    7:40   59.7    34    6.5   163     18.3   824.0    0.00     243    999.0  155.1
 234    7:50   59.8    34    7.6   200     17.8   824.0    0.00     267    999.0  155.1
 234    8:00   60.2    35    7.1   179     16.3   824.0    0.00     291    999.0  155.1
 234    8:10   60.0    34    8.3   204     21.3   824.0    0.00     315    999.0  155.1
 234    8:20   60.2    34    6.6   185     17.5   824.0    0.00     339    999.0  155.1
 234    8:30   61.0    34    6.0   222     13.4   824.0    0.00     361    999.0  155.1
 234    8:40   62.2    33    6.4   232     15.1   824.0    0.00     383    999.0  155.1
 234    8:50   62.0    33   10.8   246     23.1   824.0    0.00     404    999.0  123.1
 234    9:00   61.3    34   11.7   271     23.8   824.0    0.00     425    999.0  108.1
 234    9:10   62.1    34   11.1   262     22.3   824.0    0.00     445    999.0   30.4
 234    9:20   62.2    33   13.4   273     29.5   824.0    0.00     465    999.0   45.9
 234    9:30   61.5    34   13.0   257     33.3   824.0    0.00     483    999.0   -0.5
 234    9:40   62.1    34    9.4   229     19.3   824.0    0.00     502    999.0   14.9
 234    9:50   62.9    34   12.8   258     23.4   824.0    0.00     519    999.0   46.7
 234   10:00   62.9    34    9.3   257     25.9   824.0    0.00     535    999.0   14.1
 234   10:10   63.9    32   11.5   260     20.6   824.0    0.00     549    999.0   -0.6
 234   10:20   63.9    32    9.9   257     21.3   824.0    0.00     563    999.0   30.6
 234   10:30   64.4    32    9.1   238     18.8   824.0    0.00     576    999.0   14.8
 234   10:40   64.7    32    8.1   243     20.2   824.0    0.00     586    999.0   62.0
 234   10:50   65.4    32   10.6   261     21.3   824.0    0.00     596    999.0   91.4
 234   11:00   64.3    33   14.0   270     23.2   824.0    0.00     603    999.0   61.7
 234   11:10   64.7    32   13.7   273     22.1   824.0    0.00     611    999.0   -0.5
 234   11:20   64.1    32   15.0   267     29.2   824.0    0.00     618    999.0   61.8
 234   11:30   64.9    31   12.3   257     21.6   824.0    0.00     625    999.0   15.3
 234   11:40   65.4    32   13.9   265     22.4   824.0    0.00     630    999.0   78.1
 234   11:50   64.7    32   13.6   265     22.7   824.0    0.00     635    999.0   91.9
 234   12:00   64.7    32   15.8   272     24.3   824.0    0.00     637    999.0   61.6
 234   12:10   65.3    32   12.2   274     22.1   824.0    0.00     636    999.0   31.3
 234   12:20   65.5    32   13.9   269     25.4   824.0    0.00     636    999.0   60.9
 234   12:30   65.0    32   15.6   278     25.4   824.0    0.00     634    999.0   46.2
 234   12:40   66.0    32   12.0   278     22.3   824.0    0.00     631    999.0   31.6
 234   12:50   66.7    32   12.3   264     23.2   824.0    0.00     626    999.0  154.1
 234   13:00   66.1    32   12.7   271     19.6   824.0    0.00     620    999.0   46.0
 234   13:10   66.3    32   13.2   264     21.9   824.0    0.00     613    999.0   60.8
 234   13:20   66.8    32   12.1   260     24.0   824.0    0.00     606    999.0   15.3
 234   13:30   66.3    33   16.1   278     23.3   823.0    0.00     597    999.0  109.3
 234   13:40   65.9    33   15.1   263     23.7   824.0    0.00     588    999.0  108.6
 234   13:50   66.1    33   14.9   270     26.0   823.0    0.00     578    999.0   46.3
 234   14:00   66.3    33   15.0   271     24.8   823.0    0.00     564    999.0   91.9
 234   14:10   65.3    34   17.6   275     26.5   823.0    0.00     552    999.0   15.3
 234   14:20   65.3    34   17.1   270     24.8   823.0    0.00     536    999.0   -0.2
 234   14:30   65.7    33   13.7   264     22.2   823.0    0.00     522    999.0   -0.3
 234   14:40   66.6    32   12.3   267     20.8   823.0    0.00     506    999.0   -0.1
 234   14:50   66.9    32   15.3   267     23.4   823.0    0.00     489    999.0   -0.4
 234   15:00   66.2    32   15.3   276     23.5   823.0    0.00     463    999.0   -0.4
 234   15:10   66.9    32   12.7   269     24.0   823.0    0.00     451    999.0   15.3
 234   15:20   66.0    32   14.5   269     24.4   823.0    0.00     423    999.0   15.2
 234   15:30   65.8    33   15.3   270     26.5   823.0    0.00     412    999.0   -0.3
 234   15:40   66.5    33   11.8   270     20.2   823.0    0.00     384    999.0   -0.5
 234   15:50   66.0    33   14.6   271     25.0   823.0    0.00     368    999.0   -0.4
 234   16:00   65.8    32   10.8   250     21.3   823.0    0.00     344    999.0   -0.3
 234   16:10   65.8    33   12.4   270     20.3   823.0    0.00     223    999.0   -0.5
 234   16:20   66.0    34   11.8   264     20.0   823.0    0.00      23    999.0   -0.4
 234   16:30   65.4    32   15.0   266     22.5   823.0    0.00     251    999.0   -0.5
 234   16:40   64.5    33   10.3   258     21.0   823.0    0.00     251    999.0   -0.5
 234   16:50   65.2    32   11.4   275     19.6   823.0    0.00     224    999.0   -0.4
 234   17:00   65.0    32   10.0   270     20.7   824.0    0.00     203    999.0   -0.6
 234   17:10   64.1    34   14.5   273     21.6   824.0    0.00     180    999.0   -0.5
 234   17:20   63.8    34   12.1   262     19.0   824.0    0.00     155    999.0   15.0
 234   17:30   63.9    37   10.6   270     18.1   824.0    0.00     132    999.0   -0.5
 234   17:40   63.5    36   10.5   265     19.1   824.0    0.00     111    999.0   -0.6
 234   17:50   63.1    36   11.8   268     19.0   824.0    0.00      70    999.0   61.4
 234   18:00   62.0    36   11.3   274     20.4   824.0    0.00      13    999.0  124.3
 234   18:10   61.6    37    9.3   270     14.6   824.0    0.00      12    999.0  154.6
 234   18:20   61.2    38   10.4   273     15.0   824.0    0.00      10    999.0  154.4
 234   18:30   60.4    40    9.9   272     15.3   824.0    0.00       9    999.0  154.6
 234   18:40   59.7    41    8.0   275     13.4   824.0    0.00      15    999.0  154.9
 234   18:50   59.3    43    6.8   266     11.1   824.0    0.00       7    999.0  156.7
 234   19:00   58.3    45    6.8   273      9.9   824.0    0.00       2    999.0  156.5
 234   19:10   57.7    46    6.7   284     10.4   824.0    0.00       0    999.0  154.7
 234   19:20   57.3    46    3.6   278      7.8   824.0    0.00       0    999.0  154.7
 234   19:30   56.8    47    3.7   276      5.5   824.0    0.00       0    999.0  138.3
 234   19:40   56.5    48    0.4   253      2.2   824.0    0.00       0    999.0    0.1
 234   19:50   56.4    48    1.6    78      3.1   825.0    0.00       0    999.0    0.1
 234   20:00   56.6    47    1.4    79      3.1   825.0    0.00       0    999.0    0.1
 234   20:10   56.3    48    0.5   116      1.4   825.0    0.00       0    999.0    0.1
 234   20:20   56.4    48    1.4    87      2.3   825.0    0.00       0    999.0    0.0
 234   20:30   56.2    48    2.4    99      3.1   825.0    0.00       0    999.0   -0.1
 234   20:40   56.1    50    0.9    73      2.1   825.0    0.00       0    999.0   -0.1
 234   20:50   55.8    51    0.8    83      4.3   825.0    0.00       0    999.0    0.1
 234   21:00   54.0    53    3.6    92      5.5   825.0    0.00       0    999.0   -0.2
 234   21:10   53.3    54    3.1   103      5.4   825.0    0.00       0    999.0   -0.1
 234   21:20   53.3    54    5.3   109      8.6   825.0    0.00       0    999.0   -0.2
 234   21:30   53.0    54    6.6   102      8.7   825.0    0.00       0    999.0   -0.2
 234   21:40   52.1    56    7.2   106     10.2   825.0    0.00       0    999.0   -0.2
 234   21:50   51.7    57    7.3   112     10.2   825.0    0.00       0    999.0   -0.1
 234   22:00   51.8    58    6.4   118      9.2   825.0    0.00       0    999.0   -0.1
 234   22:10   52.1    57    6.2   111      8.1   825.0    0.00       0    999.0   -0.1
 234   22:20   52.5    56    7.2   104      9.5   825.0    0.00       0    999.0   -0.2
 234   22:30   51.7    58    8.4   111     12.4   825.0    0.00       0    999.0   -0.2
 234   22:40   50.7    60   10.3   106     13.2   825.0    0.00       0    999.0   -0.2
 234   22:50   51.2    59    9.6   101     12.7   825.0    0.00       0    999.0   -0.2
 234   23:00   51.7    59    8.3   104     11.8   825.0    0.00       0    999.0   -0.2
 234   23:10   51.0    60    8.8   113     12.6   825.0    0.00       0    999.0   -0.2
 234   23:20   50.2    62    8.2   112     10.7   825.0    0.00       0    999.0   -0.2
 234   23:30   50.3    62    7.7   112     10.2   825.0    0.00       0    999.0   -0.2
 234   23:40   50.2    62    6.8   112      9.6   825.0    0.00       0    999.0   -0.2
 234   23:50   49.9    63    7.7   115     10.2   825.0    0.00       0    999.0   -0.2
 235    0:00   49.5    64    9.1   112     11.5   825.0    0.00       0    999.0   -0.2
 235    0:10   49.4    65    8.2   106     11.3   825.0    0.00       0    999.0   -0.2
 235    0:20   49.9    64    8.6   102     11.2   825.0    0.00       0    999.0   -0.1
 235    0:30   49.6    64    8.0   107     10.7   825.0    0.00       0    999.0   -0.2
 235    0:40   49.6    64    8.4   111     10.7   825.0    0.00       0    999.0   -0.2
 235    0:50   49.4    65    7.8   108     10.4   825.0    0.00       0    999.0   -0.2
 235    1:00   49.5    65    8.5   106     10.7   825.0    0.00       0    999.0   -0.2
 235    1:10   49.5    64    8.1   103     11.2   825.0    0.00       0    999.0   -0.2
 235    1:20   49.5    63    9.1   105     12.6   825.0    0.00       0    999.0   -0.2
 235    1:30   48.8    64    8.8   108     11.9   825.0    0.00       0    999.0   -0.2
 235    1:40   48.8    63    9.7   107     13.0   825.0    0.00       0    999.0   -0.3
 235    1:50   49.1    61    9.6   106     13.4   825.0    0.00       0    999.0   -0.2
 235    2:00   49.1    60    9.2   108     12.5   825.0    0.00       0    999.0   -0.2
 235    2:10   49.0    60    8.1   105     11.4   825.0    0.00       0    999.0   -0.2
 235    2:20   48.8    60    8.0   108     10.6   825.0    0.00       0    999.0   -0.2
 235    2:30   48.6    59    7.9   111     11.3   825.0    0.00       0    999.0   -0.3
 235    2:40   48.7    58    7.8   112     10.3   825.0    0.00       0    999.0   -0.3
 235    2:50   48.3    59    8.2   110     11.3   825.0    0.00       0    999.0   -0.2
 235    3:00   48.4    59    8.7   106     12.2   825.0    0.00       0    999.0   -0.3
 235    3:10   48.7    58    8.8   109     12.5   825.0    0.00       0    999.0   -0.2
 235    3:20   48.2    59    8.3   110     11.8   825.0    0.00       0    999.0   -0.2
 235    3:30   48.1    59    8.7   108     12.0   825.0    0.00       0    999.0   -0.2
 235    3:40   48.0    60    9.0   110     11.8   825.0    0.00       0    999.0   -0.3
 235    3:50   48.5    58    9.1   109     12.6   825.0    0.00       0    999.0   -0.3
 235    4:00   48.9    57    9.3   108     13.1   825.0    0.00       0    999.0   -0.2
 235    4:10   48.6    58    8.8   108     12.9   825.0    0.00       0    999.0   -0.2
 235    4:20   48.4    58    9.1   109     11.9   825.0    0.00       0    999.0   -0.2
 235    4:30   49.2    56    9.7   107     12.6   825.0    0.00       0    999.0   -0.2
 235    4:40   49.5    55    9.6   109     13.4   825.0    0.00       0    999.0   -0.2

Return to Cisco Butte graphs page.


Western Regional Climate Center,wrcc@dri.edu